Flight Track Log - Related Links

Times and Time Zones

All times are in EDT time to prevent confusion due to time zone crossing. See the N731ZF flight status page for this flight to view local times or setup timezone preferences in your user account.

Time Position Orientation Groundspeed Altitude Reporting Facility
EDT Latitude Longitude Course Direction KTS MPH feet Rate Location/Type
Thu 01:53:41 PM 37.0503 -97.6622 108° East 166 191 13,400  Level Kansas City Center
Thu 01:54:43 PM 37.0361 -97.6075 108° East 165 190 13,400  Level Kansas City Center
Thu 01:55:45 PM 37.0211 -97.5539 109° East 164 189 13,400  Level Kansas City Center
Thu 01:56:47 PM 37.0050 -97.4992 110° East 166 191 13,400 -194 Level Kansas City Center
Thu 01:57:49 PM 36.9886 -97.4433 110° East 169 194 13,000 -242 Descending Kansas City Center
Thu 01:58:51 PM 36.9731 -97.3856 109° East 173 199 12,900 -47 Descending Kansas City Center
Thu 01:59:56 PM 36.9556 -97.3203 109° East 167 192 12,900  Level Kansas City Center
Thu 02:00:58 PM 36.9400 -97.2694 111° Southeast 161 185 12,900 48 Level Kansas City Center
Thu 02:02:00 PM 36.9253 -97.2144 108° East 163 188 13,000  Climbing Kansas City Center
Thu 02:03:02 PM 36.9106 -97.1614 109° East 163 188 12,900 -48 Descending Kansas City Center
Thu 02:04:04 PM 36.8953 -97.1078 110° East 164 189 12,900  Level Kansas City Center
Thu 02:05:06 PM 36.8731 -97.0475 115° Southeast 161 185 12,900 48 Level Kansas City Center
Thu 02:06:08 PM 36.8589 -96.9922 108° East 165 190 13,000 48 Climbing Kansas City Center
Thu 02:07:10 PM 36.8428 -96.9392 111° Southeast 169 194 13,000  Level Kansas City Center
Thu 02:08:12 PM 36.8283 -96.8822 108° East 172 198 13,000  Level Kansas City Center
Thu 02:09:14 PM 36.8086 -96.8147 110° East 172 198 13,000 -48 Level Kansas City Center
Thu 02:10:16 PM 36.7914 -96.7589 111° Southeast 172 198 12,900 -48 Descending Kansas City Center
Thu 02:11:18 PM 36.7750 -96.7031 110° East 172 198 12,900  Level Kansas City Center
Thu 02:12:20 PM 36.7583 -96.6486 111° Southeast 170 196 12,900  Level Kansas City Center
Thu 02:13:23 PM 36.7425 -96.5928 109° East 170 196 12,900  Level Kansas City Center
Thu 02:14:25 PM 36.7267 -96.5372 110° East 170 196 12,900 48 Level Kansas City Center
Thu 02:15:27 PM 36.7067 -96.4706 110° East 171 197 13,000  Climbing Kansas City Center
Thu 02:16:13 PM 36.6950 -96.4281 109° East 172 198 12,900 -97 Descending Kansas City Center
Thu 02:16:29 PM 36.6917 -96.4139 106° East 172 198 12,900 98 Level Kansas City Center
Thu 02:17:14 PM 36.6781 -96.3728 112° Southeast 170 196 13,000  Climbing Kansas City Center
Thu 02:17:31 PM 36.6764 -96.3583 98° East 169 194 12,900 -98 Descending Kansas City Center
Thu 02:18:15 PM 36.6633 -96.3200 113° Southeast 164 189 12,900 97 Level Kansas City Center
Thu 02:18:33 PM 36.6606 -96.3047 103° East 166 191 13,000  Climbing Kansas City Center
Thu 02:19:22 PM 36.6456 -96.2572 111° Southeast 168 193 12,900  Descending Kansas City Center
Thu 02:20:17 PM 36.6286 -96.2047 112° Southeast 170 196 13,000 80 Climbing Kansas City Center
Thu 02:20:37 PM 36.6281 -96.1947 94° East 171 197 13,000 -100 Level Kansas City Center
Thu 02:21:17 PM 36.6136 -96.1494 112° Southeast 170 196 12,900 -97 Descending Kansas City Center
Thu 02:21:39 PM 36.6114 -96.1394 105° East 171 197 12,900  Level Kansas City Center
Thu 02:22:18 PM 36.5964 -96.0942 112° Southeast 170 196 12,900  Level Kansas City Center
Thu 02:22:41 PM 36.5922 -96.0725 103° East 172 198 12,900 76 Level Kansas City Center
Thu 02:23:37 PM 36.5758 -96.0242 113° Southeast 169 194 13,000  Climbing Kansas City Center
Thu 02:24:45 PM 36.5594 -95.9647 109° East 167 192 12,900 -58 Descending Kansas City Center
Thu 02:25:20 PM 36.5492 -95.9314 111° Southeast 168 193 12,900  Level Kansas City Center
Thu 02:25:47 PM 36.5425 -95.9103 111° Southeast 168 193 12,900  Level Kansas City Center
Thu 02:26:39 PM 36.5267 -95.8617 112° Southeast 168 193 12,900  Level Kansas City Center
Thu 02:27:51 PM 36.5108 -95.8025 108° East 166 191 12,900  Level Kansas City Center
Thu 02:28:28 PM 36.4969 -95.7614 113° Southeast 164 189 12,900  Level Kansas City Center
Thu 02:28:53 PM 36.4908 -95.7383 108° East 165 190 12,900  Level Kansas City Center
Thu 02:29:29 PM 36.4819 -95.7089 111° Southeast 165 190 12,900  Level Kansas City Center
Thu 02:29:55 PM 36.4750 -95.6856 110° East 165 190 12,900  Level Kansas City Center
Thu 02:30:24 PM 36.4672 -95.6589 110° East 165 190 12,900 97 Level Kansas City Center
Thu 02:30:57 PM 36.4586 -95.6314 111° Southeast 167 192 13,000  Climbing Kansas City Center
Thu 02:31:43 PM 36.4464 -95.5889 110° East 166 191 12,900 -97 Descending Kansas City Center
Thu 02:31:59 PM 36.4419 -95.5775 116° Southeast 167 192 12,900 91 Level Kansas City Center
Thu 02:32:49 PM 36.4261 -95.5267 111° Southeast 167 192 13,000 54 Climbing Kansas City Center
Thu 02:33:50 PM 36.4111 -95.4744 110° East 168 193 13,000 -50 Level Kansas City Center
Thu 02:34:50 PM 36.3933 -95.4169 111° Southeast 172 198 12,900  Descending Kansas City Center
Thu 02:35:05 PM 36.3900 -95.4039 108° East 171 197 13,000  Climbing Kansas City Center
Thu 02:35:51 PM 36.3781 -95.3619 109° East 175 201 12,900  Descending Kansas City Center
Thu 02:36:07 PM 36.3742 -95.3503 112° Southeast 172 198 13,000  Climbing Kansas City Center
Thu 02:36:52 PM 36.3603 -95.3047 111° Southeast 177 204 12,900 -97 Descending Kansas City Center
Thu 02:37:09 PM 36.3572 -95.2933 108° East 175 201 12,900  Level Kansas City Center
Thu 02:37:52 PM 36.3444 -95.2472 109° East 173 199 12,900 97 Level Kansas City Center
Thu 02:38:11 PM 36.3439 -95.2367 94° East 172 198 13,000  Climbing Kansas City Center
Thu 02:39:14 PM 36.3242 -95.1697 110° East 172 198 12,900  Descending Kansas City Center
Thu 02:40:16 PM 36.3086 -95.1131 109° East 173 199 13,000  Climbing Kansas City Center
Thu 02:41:18 PM 36.2972 -95.0550 104° East 173 199 12,900 -48 Descending Kansas City Center
Thu 02:42:20 PM 36.2853 -94.9969 104° East 174 200 12,900 -97 Level Kansas City Center
Thu 02:43:22 PM 36.2736 -94.9392 104° East 173 199 12,700 -339 Descending Kansas City Center
Thu 02:44:24 PM 36.2594 -94.8792 106° East 178 205 12,200 -629 Descending Kansas City Center
Thu 02:45:26 PM 36.2431 -94.8072 106° East 181 208 11,400 -629 Descending Kansas City Center
Thu 02:46:28 PM 36.2289 -94.7478 106° East 180 207 10,900 -387 Descending Kansas City Center
Thu 02:47:30 PM 36.2150 -94.6897 107° East 177 204 10,600 -387 Descending Kansas City Center
Thu 02:48:32 PM 36.2031 -94.6464 109° East 144 166 10,100 -551 Descending Kansas City Center
Thu 02:49:08 PM 36.1961 -94.6211 109° East 149 171 9,700 -813 Descending Memphis Center
Thu 02:50:08 PM 36.1811 -94.5767 113° Southeast 149 171 8,800 -800 Descending Memphis Center
Thu 02:51:08 PM 36.1700 -94.5322 107° East 143 165 8,100 -800 Descending Memphis Center
Thu 02:52:08 PM 36.1653 -94.4858 97° East 138 159 7,200 -850 Descending Memphis Center
Thu 02:53:08 PM 36.1628 -94.4394 94° East 131 151 6,400 -650 Descending Memphis Center
Thu 02:54:08 PM 36.1622 -94.3931 91° East 125 144 5,900 -600 Descending Memphis Center
Thu 02:55:08 PM 36.1614 -94.3519 91° East 120 138 5,200 -450 Descending Memphis Center
Thu 02:56:08 PM 36.1586 -94.3106 95° East 120 138 5,000 -500 Descending Memphis Center
Thu 02:57:08 PM 36.1581 -94.2644 91° East 120 138 4,200 -800 Descending Memphis Center
Thu 02:59:00 PM 36.0751 -94.2131 153° Southeast  Level FlightAware Approximate
Thu 03:06:00 PM 36.0000 -94.1667 North  Level FlightAware Approximate
Thu 03:07:00 PM 36.0051 -94.1701 North  Level Estimated
Thu 03:08:00 PM 36.0000 -94.1667 North  Level FlightAware Approximate
Thu 03:09:00 PM 36.0051 -94.1701 North  Level Estimated

Login

Don't have an account? Register now (free) for customized features, flight alerts, and more!